Time;durP1;ratioP1;P1;durP2;ratioP2;P2;SDS_P1;SDS_P2;PMS_P1;PMS_P2;Temp;Humidity;BMP_temperature;BMP_pressure;BME280_temperature;BME280_humidity;BME280_pressure;Samples;Min_cycle;Max_cycle;Signal;HPM_P1;HPM_P2
2021/04/17 00:01:00;;;;;;;11.80;9.90;;;7.90;83.10;15.00;99849.00;;;;5011291;28;20199;-69
2021/04/17 00:03:26;;;;;;;11.17;9.93;;;7.90;83.10;15.20;99835.00;;;;4989624;28;20188;-70
2021/04/17 00:05:52;;;;;;;11.00;9.60;;;7.90;83.10;15.00;99840.00;;;;4974627;28;20195;-68
2021/04/17 00:08:18;;;;;;;12.10;9.87;;;7.90;83.10;15.00;99844.00;;;;4989722;28;20177;-69
2021/04/17 00:10:44;;;;;;;11.38;10.05;;;7.90;83.10;15.10;99854.00;;;;4975018;28;20189;-70
2021/04/17 00:13:10;;;;;;;12.23;10.17;;;7.90;83.20;15.00;99849.00;;;;4991539;28;20192;-69
2021/04/17 00:15:35;;;;;;;11.40;9.97;;;7.90;83.20;15.10;99846.00;;;;4992426;28;20707;-69
2021/04/17 00:18:01;;;;;;;13.90;10.30;;;7.90;83.20;15.00;99842.00;;;;4990842;28;20203;-69
2021/04/17 00:20:27;;;;;;;13.87;11.20;;;7.90;83.20;14.90;99836.00;;;;4990855;28;20570;-69
2021/04/17 00:22:53;;;;;;;11.90;10.57;;;7.90;83.20;15.00;99837.00;;;;4990882;28;20204;-69
2021/04/17 00:25:18;;;;;;;12.87;10.57;;;7.90;83.20;15.20;99840.00;;;;4991953;28;20634;-70
2021/04/17 00:27:44;;;;;;;11.50;9.90;;;7.90;83.20;15.10;99835.00;;;;4991761;28;20208;-70
2021/04/17 00:30:10;;;;;;;11.90;9.57;;;7.90;83.20;15.10;99836.00;;;;4991892;28;20180;-69
2021/04/17 00:32:36;;;;;;;11.20;9.50;;;7.90;83.20;15.10;99840.00;;;;4991923;28;20209;-69
2021/04/17 00:35:02;;;;;;;12.83;10.03;;;7.90;83.20;15.00;99841.00;;;;4990568;28;20195;-69
2021/04/17 00:37:28;;;;;;;11.85;9.85;;;7.90;83.20;15.20;99832.00;;;;4990107;28;20227;-69
2021/04/17 00:39:54;;;;;;;11.40;9.53;;;7.90;83.20;15.20;99833.00;;;;4990027;28;20463;-69
2021/04/17 00:42:19;;;;;;;11.70;10.00;;;7.90;83.20;15.10;99823.00;;;;4992295;28;20212;-69
2021/04/17 00:44:45;;;;;;;10.37;9.10;;;7.90;83.20;15.30;99837.00;;;;4977267;28;20638;-70
2021/04/17 00:47:11;;;;;;;13.93;9.87;;;7.90;83.20;15.00;99827.00;;;;5011444;28;20208;-70
2021/04/17 00:49:36;;;;;;;12.93;10.77;;;7.90;83.20;15.10;99829.00;;;;4993637;28;20198;-70
2021/04/17 00:52:02;;;;;;;12.33;10.33;;;7.90;83.20;15.00;99827.00;;;;4993793;28;20200;-70
2021/04/17 00:54:28;;;;;;;11.80;10.03;;;7.90;83.20;15.00;99827.00;;;;4993101;28;20246;-70
2021/04/17 00:56:54;;;;;;;11.53;9.80;;;7.90;83.20;15.10;99831.00;;;;5011628;28;20827;-69
2021/04/17 00:59:20;;;;;;;10.60;8.87;;;7.90;83.20;15.10;99828.00;;;;4993141;28;20259;-69
2021/04/17 01:01:46;;;;;;;12.00;10.33;;;7.90;83.20;15.20;99828.00;;;;4993629;28;20199;-69
2021/04/17 01:04:20;;;;;;;11.68;10.07;;;7.90;83.20;15.10;99833.00;;;;4976575;28;20176;-69
2021/04/17 01:07:10;;;;;;;13.13;10.10;;;7.90;83.20;15.00;99828.00;;;;4977706;28;20198;-69
2021/04/17 01:09:39;;;;;;;13.70;11.60;;;7.90;83.20;15.00;99826.00;;;;4981722;28;20183;-69
2021/04/17 01:12:17;;;;;;;13.00;10.88;;;7.90;83.20;15.10;99824.00;;;;4993140;28;20435;-69
2021/04/17 01:14:44;;;;;;;11.55;10.00;;;7.90;83.20;15.00;99822.00;;;;4992623;28;20333;-69
2021/04/17 01:17:13;;;;;;;12.32;10.15;;;7.80;83.10;15.10;99822.00;;;;4976765;28;20215;-71
2021/04/17 01:19:39;;;;;;;12.75;10.45;;;7.80;83.10;14.90;99824.00;;;;4993051;28;20557;-71
2021/04/17 01:22:12;;;;;;;12.93;10.43;;;7.90;83.20;15.10;99804.00;;;;5010396;28;20216;-71
2021/04/17 01:24:40;;;;;;;12.38;10.45;;;7.90;83.20;15.20;99822.00;;;;4961199;28;20668;-70
2021/04/17 01:27:06;;;;;;;12.65;10.50;;;7.90;83.20;15.00;99822.00;;;;4977489;28;20772;-70
2021/04/17 01:29:32;;;;;;;12.35;9.68;;;7.90;83.20;15.30;99812.00;;;;4992246;28;20171;-71
2021/04/17 01:32:00;;;;;;;11.52;10.18;;;7.80;83.10;15.20;99823.00;;;;4993395;28;20295;-71
2021/04/17 01:34:25;;;;;;;12.98;11.32;;;7.80;83.10;15.10;99827.00;;;;4976702;28;20650;-71
2021/04/17 01:36:51;;;;;;;13.47;10.97;;;7.90;83.20;15.20;99811.00;;;;4976622;28;20266;-72
2021/04/17 01:39:17;;;;;;;11.20;9.87;;;7.80;83.10;15.10;99800.00;;;;4976569;28;20219;-70
2021/04/17 01:41:51;;;;;;;13.00;10.60;;;7.80;83.10;15.20;99801.00;;;;4976650;28;20214;-71
2021/04/17 01:44:23;;;;;;;12.57;10.80;;;7.80;83.10;15.10;99804.00;;;;4976649;28;20239;-71
2021/04/17 01:46:56;;;;;;;11.77;9.85;;;7.80;83.10;15.00;99805.00;;;;4977136;28;20207;-70
2021/04/17 01:49:22;;;;;;;14.95;11.43;;;7.80;83.10;15.00;99801.00;;;;4993021;28;20191;-71
2021/04/17 01:51:48;;;;;;;11.98;10.27;;;7.80;83.10;15.20;99797.00;;;;4976619;28;20697;-70
2021/04/17 01:54:22;;;;;;;13.73;10.30;;;7.90;83.20;15.30;99799.00;;;;5008342;28;20180;-70
2021/04/17 01:56:49;;;;;;;11.73;10.32;;;7.80;83.10;15.00;99793.00;;;;4976278;28;20248;-70
2021/04/17 01:59:15;;;;;;;13.25;10.93;;;7.90;83.20;15.00;99792.00;;;;4960468;28;20287;-70
2021/04/17 02:01:41;;;;;;;12.77;11.23;;;7.80;83.10;15.00;99788.00;;;;4976618;28;20226;-71
2021/04/17 02:04:07;;;;;;;12.13;10.07;;;7.80;83.20;14.90;99790.00;;;;4976229;28;20187;-70
2021/04/17 02:06:33;;;;;;;12.25;10.63;;;7.80;83.10;14.90;99795.00;;;;4992717;28;20720;-70
2021/04/17 02:08:59;;;;;;;12.65;10.63;;;7.80;83.10;15.20;99785.00;;;;4976065;28;20180;-70
2021/04/17 02:11:25;;;;;;;13.17;10.40;;;7.80;83.10;15.20;99780.00;;;;4976230;28;20306;-70
2021/04/17 02:13:51;;;;;;;12.57;10.93;;;7.80;83.20;14.90;99788.00;;;;4977123;28;20304;-70
2021/04/17 02:16:18;;;;;;;12.03;10.13;;;7.80;83.10;15.10;99788.00;;;;4976128;28;20224;-70
2021/04/17 02:18:48;;;;;;;12.80;10.02;;;7.80;83.20;15.00;99785.00;;;;4976803;28;20664;-70
2021/04/17 02:21:20;;;;;;;11.88;10.38;;;7.80;83.10;15.20;99788.00;;;;4975622;28;20204;-70
2021/04/17 02:23:46;;;;;;;13.73;10.98;;;7.80;83.20;15.10;99774.00;;;;4977742;28;20183;-70
2021/04/17 02:26:12;;;;;;;12.07;10.35;;;7.80;83.20;14.90;99775.00;;;;4960065;28;20315;-70
2021/04/17 02:28:37;;;;;;;11.03;9.40;;;7.80;83.10;15.20;99764.00;;;;4960436;28;20203;-70
2021/04/17 02:31:03;;;;;;;12.80;10.97;;;7.80;83.20;15.20;99764.00;;;;4992385;28;20281;-70
2021/04/17 02:33:29;;;;;;;11.97;10.40;;;7.90;83.30;15.00;99731.00;;;;4960114;28;20184;-73
2021/04/17 02:35:55;;;;;;;12.40;10.43;;;7.80;83.10;15.10;99770.00;;;;4959202;28;20467;-73
2021/04/17 02:38:21;;;;;;;13.65;11.32;;;7.80;84.00;15.20;99770.00;;;;4992759;28;20195;-70
2021/04/17 02:40:47;;;;;;;13.83;11.57;;;7.80;83.20;14.90;99771.00;;;;4975493;28;20549;-70
2021/04/17 02:43:12;;;;;;;12.10;10.70;;;7.80;83.20;15.20;99762.00;;;;4956912;28;20446;-70
2021/04/17 02:45:38;;;;;;;12.30;10.30;;;7.80;83.20;15.00;99765.00;;;;4988951;28;20199;-70
2021/04/17 02:48:05;;;;;;;13.13;11.23;;;7.80;83.30;15.30;99760.00;;;;4988756;28;20185;-70
2021/04/17 02:50:30;;;;;;;11.48;9.80;;;7.80;83.20;15.20;99757.00;;;;4989109;28;20267;-69
2021/04/17 02:52:56;;;;;;;12.97;10.80;;;7.80;83.20;15.10;99747.00;;;;4972882;28;20359;-69
2021/04/17 02:55:22;;;;;;;12.90;10.97;;;7.80;83.30;15.00;99748.00;;;;4988837;28;20184;-69
2021/04/17 02:57:48;;;;;;;11.87;9.90;;;7.80;83.20;15.10;99753.00;;;;4972575;28;20224;-69
2021/04/17 03:00:17;;;;;;;11.77;10.50;;;7.80;83.30;15.10;99752.00;;;;4988428;28;20280;-70
2021/04/17 03:02:43;;;;;;;12.27;10.15;;;7.80;83.30;15.10;99750.00;;;;4988778;28;20430;-70
2021/04/17 03:05:09;;;;;;;13.83;11.63;;;7.80;83.30;15.10;99731.00;;;;4988798;28;20199;-71
2021/04/17 03:07:35;;;;;;;12.23;10.50;;;7.80;83.30;15.10;99754.00;;;;4992396;28;20204;-70
2021/04/17 03:10:05;;;;;;;11.00;9.90;;;7.80;83.20;15.20;99750.00;;;;4992234;28;20187;-70
2021/04/17 03:12:31;;;;;;;11.32;9.73;;;7.80;83.30;15.10;99744.00;;;;4993385;28;20294;-70
2021/04/17 03:14:56;;;;;;;12.07;10.40;;;7.80;83.30;15.20;99736.00;;;;4976029;28;20658;-70
2021/04/17 03:17:22;;;;;;;13.27;11.03;;;7.80;83.30;14.90;99753.00;;;;4992134;28;20216;-70
2021/04/17 03:19:48;;;;;;;10.93;9.40;;;7.80;83.30;15.10;99751.00;;;;4992573;28;20199;-70
2021/04/17 03:22:14;;;;;;;13.60;10.20;;;7.80;83.30;14.90;99750.00;;;;4992846;28;20956;-70
2021/04/17 03:24:39;;;;;;;13.43;10.47;;;7.80;83.30;15.00;99746.00;;;;4992272;28;20184;-70
2021/04/17 03:27:06;;;;;;;14.00;11.20;;;7.80;83.30;15.20;99735.00;;;;4992798;28;20268;-70
2021/04/17 03:29:32;;;;;;;12.57;10.45;;;7.80;83.30;14.90;99744.00;;;;4992027;28;20195;-70
2021/04/17 03:31:57;;;;;;;10.87;9.27;;;7.80;83.30;15.00;99758.00;;;;4975521;28;20711;-70
2021/04/17 03:34:23;;;;;;;13.33;11.70;;;7.80;83.30;15.00;99753.00;;;;4992133;28;20431;-70
2021/04/17 03:36:49;;;;;;;10.50;9.40;;;7.80;83.30;14.80;99754.00;;;;4990992;28;20270;-70
2021/04/17 03:39:15;;;;;;;12.87;11.20;;;7.80;83.30;15.00;99747.00;;;;4991865;28;20177;-70
2021/04/17 03:41:41;;;;;;;13.37;10.10;;;7.80;83.30;15.10;99741.00;;;;4991712;28;20505;-70
2021/04/17 03:44:06;;;;;;;11.43;10.23;;;7.80;83.30;15.10;99751.00;;;;4992002;28;20224;-70
2021/04/17 03:46:32;;;;;;;12.37;10.67;;;7.80;83.30;15.00;99749.00;;;;4975178;28;20201;-70
2021/04/17 03:48:58;;;;;;;11.37;9.70;;;7.80;83.30;14.90;99750.00;;;;4993292;28;20185;-70
2021/04/17 03:51:24;;;;;;;13.43;10.23;;;7.80;83.30;15.00;99751.00;;;;5007006;28;20200;-70
2021/04/17 03:53:50;;;;;;;11.63;9.63;;;7.80;83.30;15.00;99750.00;;;;4975423;28;20475;-70
2021/04/17 03:56:15;;;;;;;12.60;10.10;;;7.80;83.30;15.10;99755.00;;;;4991386;28;20328;-70
2021/04/17 03:58:41;;;;;;;11.20;10.00;;;7.80;83.30;15.10;99755.00;;;;4991586;28;20418;-71
2021/04/17 04:01:07;;;;;;;11.37;9.90;;;7.80;83.30;15.20;99748.00;;;;4974919;28;20295;-70
2021/04/17 04:03:33;;;;;;;11.60;9.57;;;7.80;83.30;14.90;99756.00;;;;4991890;28;20187;-70
2021/04/17 04:05:59;;;;;;;13.40;10.17;;;7.80;83.30;15.00;99761.00;;;;4974320;28;20648;-71
2021/04/17 04:08:25;;;;;;;12.50;10.33;;;7.80;83.30;15.20;99767.00;;;;4991768;28;20426;-71
2021/04/17 04:10:51;;;;;;;12.20;10.37;;;7.80;83.30;14.90;99763.00;;;;4991211;28;20432;-70
2021/04/17 04:13:16;;;;;;;12.00;10.20;;;7.80;83.30;15.00;99758.00;;;;4991484;28;20487;-70
2021/04/17 04:15:42;;;;;;;11.83;10.43;;;7.80;83.30;14.90;99767.00;;;;4991373;28;20552;-70
2021/04/17 04:18:08;;;;;;;12.53;10.40;;;7.80;83.30;14.90;99772.00;;;;4989756;28;20259;-70
2021/04/17 04:20:34;;;;;;;12.07;9.87;;;7.80;83.30;15.00;99769.00;;;;4992754;28;20219;-71
2021/04/17 04:23:00;;;;;;;11.60;9.40;;;7.80;83.30;14.90;99769.00;;;;4991059;28;20212;-70
2021/04/17 04:25:26;;;;;;;11.80;10.60;;;7.80;83.30;14.90;99764.00;;;;4991119;28;20654;-71
2021/04/17 04:27:52;;;;;;;11.30;10.07;;;7.80;83.40;15.10;99764.00;;;;4990759;28;20239;-70
2021/04/17 04:30:18;;;;;;;11.90;9.70;;;7.80;83.30;15.00;99775.00;;;;4992544;28;20674;-71
2021/04/17 04:32:44;;;;;;;11.73;9.75;;;7.80;83.40;15.10;99770.00;;;;4990493;28;20208;-70
2021/04/17 04:35:10;;;;;;;11.47;10.13;;;7.80;83.30;15.00;99777.00;;;;4975105;28;20187;-70
2021/04/17 04:37:36;;;;;;;12.05;10.73;;;7.80;83.30;15.10;99738.00;;;;4990840;28;20722;-70
2021/04/17 04:40:04;;;;;;;10.50;9.40;;;7.80;83.30;15.20;99769.00;;;;4974900;28;20192;-69
2021/04/17 04:42:33;;;;;;;11.30;9.75;;;7.80;83.30;15.20;99771.00;;;;4977691;28;20293;-69
2021/04/17 04:45:00;;;;;;;11.90;10.20;;;7.80;83.30;15.10;99769.00;;;;4994038;28;20275;-70
2021/04/17 04:47:26;;;;;;;11.98;9.90;;;7.80;83.30;14.90;99779.00;;;;4977801;28;20218;-70
2021/04/17 04:49:52;;;;;;;12.30;10.57;;;7.80;83.30;14.90;99779.00;;;;4994193;28;20179;-70
2021/04/17 04:52:17;;;;;;;11.33;9.93;;;7.80;83.40;15.10;99776.00;;;;4977739;28;20204;-70
2021/04/17 04:54:43;;;;;;;13.50;10.20;;;7.80;83.30;15.10;99779.00;;;;4993709;28;20187;-71
2021/04/17 04:57:09;;;;;;;11.07;9.97;;;7.80;83.30;15.00;99775.00;;;;4976749;28;20215;-71
2021/04/17 04:59:35;;;;;;;12.33;10.60;;;7.80;83.30;14.90;99779.00;;;;4993940;28;20680;-70
2021/04/17 05:02:02;;;;;;;11.00;9.20;;;7.80;83.30;15.00;99777.00;;;;4993490;28;20952;-69
2021/04/17 05:04:28;;;;;;;12.20;10.20;;;7.80;83.40;15.10;99778.00;;;;4993644;28;20585;-70
2021/04/17 05:06:53;;;;;;;12.00;9.80;;;7.80;84.10;15.00;99746.00;;;;5010887;28;20246;-70
2021/04/17 05:09:19;;;;;;;11.40;10.20;;;7.80;83.30;15.30;99779.00;;;;4993127;28;20435;-71
2021/04/17 05:11:45;;;;;;;10.20;8.93;;;7.80;83.40;15.10;99773.00;;;;4993062;28;20215;-70
2021/04/17 05:14:11;;;;;;;11.67;9.17;;;7.80;83.40;15.10;99777.00;;;;4993089;28;20191;-70
2021/04/17 05:16:36;;;;;;;11.30;9.33;;;7.80;83.40;15.00;99772.00;;;;4993643;28;20234;-70
2021/04/17 05:19:02;;;;;;;11.50;9.37;;;7.80;83.30;15.00;99782.00;;;;4993087;28;20183;-72
2021/04/17 05:21:28;;;;;;;12.27;9.90;;;7.80;83.40;15.00;99784.00;;;;4992689;28;20905;-71
2021/04/17 05:23:55;;;;;;;10.43;9.33;;;7.80;83.40;15.00;99774.00;;;;4992959;28;20483;-72
2021/04/17 05:26:21;;;;;;;12.45;9.70;;;7.80;83.30;14.90;99781.00;;;;4993125;28;20943;-70
2021/04/17 05:28:46;;;;;;;11.40;9.70;;;7.80;83.30;14.90;99781.00;;;;4976281;28;20187;-72
2021/04/17 05:31:12;;;;;;;10.80;9.17;;;7.80;83.40;15.00;99777.00;;;;5010619;28;20206;-71
2021/04/17 05:33:38;;;;;;;9.57;8.50;;;7.80;83.40;14.90;99778.00;;;;4993077;28;20199;-71
2021/04/17 05:36:04;;;;;;;11.27;9.27;;;7.80;83.40;15.10;99778.00;;;;4992454;28;20725;-71
2021/04/17 05:38:30;;;;;;;9.63;8.30;;;7.80;83.40;15.10;99782.00;;;;5009082;28;20266;-71
2021/04/17 05:40:56;;;;;;;11.07;8.50;;;7.80;83.40;15.00;99778.00;;;;4993211;28;20186;-71
2021/04/17 05:43:22;;;;;;;10.27;8.90;;;7.80;83.40;14.90;99780.00;;;;4989205;28;20568;-71
2021/04/17 05:45:47;;;;;;;11.10;8.97;;;7.80;83.40;15.10;99780.00;;;;4990904;28;20594;-71
2021/04/17 05:48:13;;;;;;;9.87;8.20;;;7.80;83.40;14.90;99783.00;;;;4990719;28;20414;-70
2021/04/17 05:50:39;;;;;;;10.50;8.87;;;7.80;83.40;14.80;99777.00;;;;4989085;28;20216;-71
2021/04/17 05:53:05;;;;;;;11.37;9.03;;;7.80;83.40;15.10;99778.00;;;;4989582;28;20190;-71
2021/04/17 05:55:30;;;;;;;10.53;8.70;;;7.80;83.40;14.90;99774.00;;;;4973506;28;20207;-72
2021/04/17 05:57:56;;;;;;;11.87;9.13;;;7.80;83.40;15.00;99776.00;;;;4988798;28;20729;-71
2021/04/17 06:00:22;;;;;;;11.10;9.00;;;7.80;83.40;15.20;99773.00;;;;4991011;28;20501;-70
2021/04/17 06:02:51;;;;;;;10.82;9.73;;;7.80;83.50;15.30;99769.00;;;;4972669;28;20306;-71
2021/04/17 06:05:17;;;;;;;9.20;8.27;;;7.80;83.40;15.10;99764.00;;;;4989419;28;20601;-71
2021/04/17 06:07:43;;;;;;;9.87;8.60;;;7.80;83.40;15.30;99767.00;;;;4972314;28;20254;-71
2021/04/17 06:10:10;;;;;;;10.63;8.63;;;7.80;83.50;15.20;99760.00;;;;4989733;28;20195;-71
2021/04/17 06:12:35;;;;;;;10.80;9.07;;;7.80;83.40;15.30;99765.00;;;;5004968;28;20541;-71
2021/04/17 06:15:01;;;;;;;9.90;8.83;;;7.80;83.40;15.40;99764.00;;;;4990152;28;20642;-71
2021/04/17 06:17:27;;;;;;;11.10;9.60;;;7.80;83.40;15.20;99764.00;;;;4988482;28;20231;-72
2021/04/17 06:19:53;;;;;;;10.70;8.43;;;7.80;83.40;15.10;99768.00;;;;4990471;28;20421;-71
2021/04/17 06:22:18;;;;;;;10.77;8.40;;;7.80;83.40;15.10;99768.00;;;;4989104;28;20275;-71
2021/04/17 06:24:44;;;;;;;10.80;9.07;;;7.80;83.40;15.10;99760.00;;;;4990010;28;20560;-69
2021/04/17 06:27:10;;;;;;;9.47;7.93;;;7.80;83.40;15.00;99762.00;;;;4988709;28;20274;-69
2021/04/17 06:29:36;;;;;;;9.68;8.15;;;7.80;83.40;15.20;99774.00;;;;4972875;28;20655;-71
2021/04/17 06:32:02;;;;;;;10.23;8.17;;;7.80;83.40;15.10;99770.00;;;;4990431;28;20283;-70
2021/04/17 06:34:27;;;;;;;9.37;8.37;;;7.80;83.40;15.10;99779.00;;;;4989347;28;20235;-70
2021/04/17 06:36:53;;;;;;;10.27;9.27;;;7.80;83.40;15.20;99773.00;;;;4989204;28;20709;-70
2021/04/17 06:39:19;;;;;;;9.00;7.47;;;7.80;83.40;15.20;99773.00;;;;4990217;28;20189;-71
2021/04/17 06:41:46;;;;;;;10.60;9.27;;;7.80;83.40;15.20;99762.00;;;;4990894;28;20208;-70
2021/04/17 06:44:11;;;;;;;8.93;8.02;;;7.80;83.40;15.10;99779.00;;;;4977275;28;20232;-70
2021/04/17 06:46:39;;;;;;;11.00;9.30;;;7.80;83.70;15.10;99769.00;;;;4993146;28;20698;-70
2021/04/17 06:49:06;;;;;;;9.27;7.90;;;7.80;83.40;15.20;99767.00;;;;4992769;28;20191;-70
2021/04/17 06:51:32;;;;;;;10.20;8.90;;;7.80;83.40;15.00;99769.00;;;;4976294;28;20209;-71
2021/04/17 06:53:57;;;;;;;10.27;8.40;;;7.80;83.40;15.10;99781.00;;;;4975692;28;20331;-72
2021/04/17 06:56:24;;;;;;;12.03;8.53;;;7.80;83.40;15.10;99776.00;;;;4992672;28;20239;-71
2021/04/17 06:58:50;;;;;;;10.50;8.93;;;7.80;83.40;15.20;99770.00;;;;4992378;28;20418;-70
2021/04/17 07:01:16;;;;;;;9.67;7.47;;;7.80;83.40;15.20;99782.00;;;;4976040;28;20312;-70
2021/04/17 07:03:41;;;;;;;9.20;7.57;;;7.80;83.40;14.90;99775.00;;;;4995220;28;20945;-71
2021/04/17 07:06:07;;;;;;;9.40;8.40;;;7.80;83.50;15.00;99776.00;;;;5010497;28;20289;-70
2021/04/17 07:08:33;;;;;;;9.07;8.17;;;7.80;83.40;15.10;99768.00;;;;5010462;28;20183;-70
2021/04/17 07:10:59;;;;;;;9.90;8.40;;;7.80;83.40;15.30;99752.00;;;;4978665;28;20204;-71
2021/04/17 07:13:26;;;;;;;9.73;8.65;;;7.80;83.40;15.10;99764.00;;;;5011281;28;20188;-71
2021/04/17 07:15:53;;;;;;;9.25;7.75;;;7.80;83.40;15.00;99772.00;;;;5011274;28;20181;-70
2021/04/17 07:18:29;;;;;;;9.20;7.90;;;7.80;83.40;15.30;99776.00;;;;4995007;28;20175;-71
2021/04/17 07:21:20;;;;;;;8.38;7.45;;;7.80;83.40;15.30;99767.00;;;;5010398;28;20206;-70
2021/04/17 07:23:47;;;;;;;8.40;7.55;;;7.80;83.40;15.00;99770.00;;;;5010764;28;20202;-71
2021/04/17 07:26:32;;;;;;;10.27;8.35;;;7.80;83.40;15.30;99777.00;;;;4979073;28;20294;-71
2021/04/17 07:29:13;;;;;;;8.05;6.75;;;7.80;83.40;15.10;99773.00;;;;5010677;28;20712;-70
2021/04/17 07:31:51;;;;;;;9.85;8.18;;;7.90;83.50;15.40;99775.00;;;;4996437;28;20207;-71
2021/04/17 07:34:22;;;;;;;9.30;7.97;;;7.80;83.50;15.30;99770.00;;;;4995518;28;20255;-70
2021/04/17 07:36:52;;;;;;;8.52;7.72;;;7.80;83.40;15.10;99775.00;;;;4994821;28;20215;-71
2021/04/17 07:39:32;;;;;;;8.38;7.35;;;7.80;83.40;15.10;99784.00;;;;4963711;28;20614;-70
2021/04/17 07:42:04;;;;;;;8.02;6.88;;;7.90;83.50;15.10;99777.00;;;;5011537;28;20352;-70
2021/04/17 07:44:35;;;;;;;8.55;7.35;;;7.80;83.40;15.20;99738.00;;;;5010556;28;20709;-70
2021/04/17 07:47:01;;;;;;;9.13;7.95;;;7.80;83.40;14.90;99787.00;;;;4980053;28;20203;-71
2021/04/17 07:49:27;;;;;;;8.50;7.00;;;7.90;83.50;15.00;99784.00;;;;5010475;28;20668;-71
2021/04/17 07:52:11;;;;;;;8.47;7.57;;;7.80;83.40;15.00;99781.00;;;;5012292;28;20466;-70
2021/04/17 07:55:04;;;;;;;9.82;7.80;;;7.90;83.50;15.10;99773.00;;;;4994911;28;20175;-71
2021/04/17 07:57:38;;;;;;;7.53;6.70;;;7.90;83.50;15.00;99759.00;;;;5011081;28;20227;-70
2021/04/17 08:00:06;;;;;;;9.13;7.93;;;7.90;83.50;15.10;99768.00;;;;4979201;28;20187;-70
2021/04/17 08:02:32;;;;;;;8.57;7.05;;;7.90;83.50;15.00;99779.00;;;;5011305;28;20203;-70
2021/04/17 08:04:59;;;;;;;9.13;7.67;;;7.90;83.50;14.90;99774.00;;;;4978692;28;20195;-71
2021/04/17 08:07:25;;;;;;;8.35;7.10;;;7.90;83.50;14.90;99782.00;;;;4978668;28;20286;-70
2021/04/17 08:09:51;;;;;;;7.13;6.43;;;7.90;83.50;14.90;99774.00;;;;4994386;28;20195;-71
2021/04/17 08:12:17;;;;;;;8.43;7.10;;;7.90;83.40;15.00;99770.00;;;;4978937;28;20224;-70
2021/04/17 08:14:43;;;;;;;9.57;7.40;;;7.90;83.40;14.90;99756.00;;;;5010692;28;20405;-71
2021/04/17 08:17:09;;;;;;;9.17;7.87;;;7.90;83.40;15.00;99776.00;;;;4994756;28;20467;-70
2021/04/17 08:19:35;;;;;;;8.40;7.43;;;7.90;83.40;14.90;99781.00;;;;4994893;28;20438;-72
2021/04/17 08:22:01;;;;;;;9.57;7.50;;;7.90;83.40;14.80;99779.00;;;;4978609;28;20762;-70
2021/04/17 08:24:28;;;;;;;7.80;7.00;;;7.90;83.40;15.10;99766.00;;;;5011541;28;20266;-70
2021/04/17 08:26:55;;;;;;;9.65;8.05;;;7.90;83.40;15.10;99769.00;;;;4978472;28;20249;-70
2021/04/17 08:29:53;;;;;;;7.68;6.60;;;7.90;83.50;15.00;99778.00;;;;4978351;28;20190;-71
2021/04/17 08:32:39;;;;;;;8.25;7.35;;;7.90;83.40;15.00;99769.00;;;;5011714;28;20210;-71
2021/04/17 08:35:10;;;;;;;8.30;6.90;;;7.90;83.40;15.20;99772.00;;;;4978377;28;20239;-70
2021/04/17 08:38:03;;;;;;;7.60;6.70;;;7.90;83.40;15.00;99770.00;;;;5009634;28;20293;-71
2021/04/17 08:40:39;;;;;;;8.63;7.68;;;7.90;83.30;15.10;99774.00;;;;5010034;28;20551;-70
2021/04/17 08:43:18;;;;;;;7.25;6.35;;;7.90;83.30;15.20;99779.00;;;;5019808;28;20225;-70
2021/04/17 08:46:14;;;;;;;9.20;7.57;;;7.90;83.30;15.00;99787.00;;;;5030483;28;20186;-71
2021/04/17 08:48:54;;;;;;;8.35;6.65;;;7.90;83.40;15.20;99780.00;;;;5013756;28;20297;-70
2021/04/17 08:51:22;;;;;;;8.07;6.43;;;7.90;83.40;15.20;99776.00;;;;5028726;28;20198;-71
2021/04/17 08:54:09;;;;;;;7.80;7.00;;;7.90;83.30;15.10;99784.00;;;;5028059;28;20190;-70
2021/04/17 08:56:51;;;;;;;7.72;6.60;;;7.90;83.30;15.20;99783.00;;;;5021864;28;20222;-70
2021/04/17 08:59:28;;;;;;;9.45;6.22;;;7.90;83.30;15.10;99771.00;;;;5027955;28;20179;-70
2021/04/17 09:01:55;;;;;;;7.70;6.18;;;7.90;83.30;15.10;99763.00;;;;5014022;28;20282;-70
2021/04/17 09:04:22;;;;;;;8.02;7.07;;;7.90;83.30;15.00;99775.00;;;;4979953;28;20644;-70
2021/04/17 09:06:53;;;;;;;8.30;6.60;;;7.90;83.30;15.00;99775.00;;;;5012852;28;20249;-70
2021/04/17 09:09:19;;;;;;;8.02;6.97;;;7.90;83.30;15.30;99770.00;;;;4996283;28;20190;-70
2021/04/17 09:11:57;;;;;;;7.70;6.65;;;8.00;84.30;15.10;99767.00;;;;5012656;28;20472;-71
2021/04/17 09:14:30;;;;;;;7.35;6.43;;;8.00;83.50;15.10;99765.00;;;;5012618;28;20201;-70
2021/04/17 09:17:01;;;;;;;9.15;6.50;;;8.00;83.50;15.20;99769.00;;;;5029463;28;20264;-70
2021/04/17 09:19:39;;;;;;;10.43;7.88;;;8.00;83.50;15.20;99770.00;;;;4996517;28;20198;-71
2021/04/17 09:22:23;;;;;;;7.57;6.70;;;8.00;83.50;15.10;99775.00;;;;5029031;28;20653;-71
2021/04/17 09:24:53;;;;;;;7.97;7.18;;;8.00;83.50;15.20;99776.00;;;;5028983;28;20717;-71
2021/04/17 09:27:33;;;;;;;8.60;7.40;;;8.00;83.50;15.20;99762.00;;;;4996508;28;20203;-72
2021/04/17 09:30:21;;;;;;;8.32;7.05;;;8.00;83.50;15.20;99764.00;;;;4994626;28;20197;-70
2021/04/17 09:32:52;;;;;;;8.75;6.53;;;8.00;83.50;15.30;99770.00;;;;4996097;28;20661;-70
2021/04/17 09:35:40;;;;;;;7.97;6.63;;;8.00;83.50;15.30;99774.00;;;;5011552;28;20555;-71
2021/04/17 09:38:12;;;;;;;8.25;6.63;;;8.00;83.50;15.20;99771.00;;;;5010905;28;20980;-71
2021/04/17 09:40:51;;;;;;;7.78;6.07;;;8.00;83.40;15.10;99771.00;;;;5012394;28;20193;-70
2021/04/17 09:43:37;;;;;;;8.18;7.07;;;8.00;83.50;15.20;99760.00;;;;5030254;28;20222;-70
2021/04/17 09:46:15;;;;;;;7.20;6.25;;;8.00;83.40;15.10;99766.00;;;;4995048;28;20206;-71
2021/04/17 09:48:42;;;;;;;7.00;6.20;;;8.00;83.40;15.10;99760.00;;;;4997306;28;20218;-70
2021/04/17 09:51:24;;;;;;;7.78;6.97;;;8.00;83.40;15.40;99766.00;;;;5012110;28;20205;-71
2021/04/17 09:53:50;;;;;;;7.28;6.13;;;8.00;83.40;15.10;99749.00;;;;5011047;28;20274;-71
2021/04/17 09:56:33;;;;;;;7.90;6.78;;;8.00;83.50;15.10;99755.00;;;;5027382;28;20245;-70
2021/04/17 09:59:06;;;;;;;7.95;7.15;;;8.00;83.50;15.30;99766.00;;;;5012082;28;20193;-71
2021/04/17 10:01:32;;;;;;;7.47;6.50;;;8.00;83.50;15.20;99755.00;;;;4993820;28;20206;-70
2021/04/17 10:03:59;;;;;;;8.07;6.00;;;8.00;83.50;15.10;99758.00;;;;5011727;28;20208;-71
2021/04/17 10:06:34;;;;;;;8.30;6.40;;;8.00;83.50;15.10;99716.00;;;;5028214;28;20194;-70
2021/04/17 10:09:10;;;;;;;8.43;6.18;;;8.00;83.50;15.20;99750.00;;;;5027356;28;20278;-70
2021/04/17 10:11:37;;;;;;;7.80;6.43;;;8.00;83.50;15.20;99750.00;;;;5027650;28;20297;-71
2021/04/17 10:14:03;;;;;;;9.10;7.60;;;8.00;83.50;15.00;99747.00;;;;5011097;28;20175;-70
2021/04/17 10:16:43;;;;;;;6.95;5.75;;;8.00;83.50;15.20;99746.00;;;;5010682;28;20737;-70
2021/04/17 10:19:14;;;;;;;7.88;6.40;;;8.00;83.50;15.00;99751.00;;;;5011383;28;20198;-70
2021/04/17 10:21:40;;;;;;;7.95;6.07;;;8.00;83.40;14.90;99736.00;;;;5010589;28;20571;-70
2021/04/17 10:24:24;;;;;;;7.23;6.43;;;8.00;83.50;15.20;99740.00;;;;4994400;28;20187;-71
2021/04/17 10:27:10;;;;;;;6.60;5.90;;;8.00;84.20;15.10;99741.00;;;;5029698;28;20464;-71
2021/04/17 10:29:51;;;;;;;8.45;6.55;;;8.00;83.50;15.20;99738.00;;;;5028182;28;20241;-70
2021/04/17 10:32:24;;;;;;;6.60;5.68;;;8.00;83.50;15.10;99745.00;;;;4995052;28;20206;-70
2021/04/17 10:35:00;;;;;;;7.45;6.18;;;8.00;83.40;15.10;99745.00;;;;5011188;28;20229;-71
2021/04/17 10:37:26;;;;;;;7.70;6.40;;;8.00;83.50;15.10;99741.00;;;;4995380;28;20587;-70
2021/04/17 10:40:08;;;;;;;8.90;7.07;;;8.10;83.50;15.20;99742.00;;;;5010725;28;20187;-71
2021/04/17 10:42:50;;;;;;;7.35;6.13;;;8.00;83.50;15.20;99748.00;;;;5011656;28;20487;-70
2021/04/17 10:45:24;;;;;;;8.13;5.75;;;8.10;83.50;15.20;99744.00;;;;4994700;28;20190;-71
2021/04/17 10:48:15;;;;;;;7.28;6.25;;;8.10;83.50;15.20;99736.00;;;;5027792;28;20344;-70
2021/04/17 10:50:44;;;;;;;7.85;6.53;;;8.10;83.50;15.20;99734.00;;;;4996740;28;20193;-70
2021/04/17 10:53:14;;;;;;;8.07;6.68;;;8.10;83.60;15.20;99742.00;;;;5009680;28;20609;-71
2021/04/17 10:55:46;;;;;;;7.80;6.38;;;8.10;83.60;15.30;99746.00;;;;5027526;28;20723;-71
2021/04/17 10:58:30;;;;;;;8.80;6.03;;;8.00;83.50;15.30;99743.00;;;;5011824;28;20214;-70
2021/04/17 11:01:15;;;;;;;7.47;5.78;;;8.10;83.60;15.20;99748.00;;;;5011871;28;20221;-70
2021/04/17 11:03:42;;;;;;;8.82;6.50;;;8.10;83.60;15.10;99724.00;;;;5027997;28;20542;-71